createdAt,value
2022-12-19T00:01:27.542Z,50.22
2022-12-19T00:04:02.368Z,49.75
2022-12-19T00:06:37.993Z,50.20
2022-12-19T00:09:14.466Z,50.58
2022-12-19T00:11:43.410Z,43.33
2022-12-19T00:14:13.081Z,60.42
2022-12-19T00:16:41.610Z,51.47
2022-12-19T00:19:13.478Z,41.63
2022-12-19T00:21:42.136Z,50.53
2022-12-19T00:24:21.171Z,48.28
2022-12-19T00:26:51.155Z,51.85
2022-12-19T00:29:19.818Z,46.58
2022-12-19T00:31:48.670Z,51.00
2022-12-19T00:34:18.673Z,41.92
2022-12-19T00:36:47.302Z,47.92
2022-12-19T00:39:15.798Z,58.42
2022-12-19T00:41:44.407Z,46.15
2022-12-19T00:44:17.976Z,41.78
2022-12-19T00:46:52.446Z,53.40
2022-12-19T00:49:23.162Z,45.92
2022-12-19T00:51:51.737Z,40.22
2022-12-19T00:54:20.343Z,51.10
2022-12-19T00:56:49.529Z,59.05
2022-12-19T00:59:18.161Z,50.42
2022-12-19T01:01:58.499Z,42.17
2022-12-19T01:04:29.784Z,42.97
2022-12-19T01:07:03.001Z,46.25
2022-12-19T01:09:37.428Z,43.00
2022-12-19T01:12:25.692Z,40.33
2022-12-19T01:15:04.662Z,47.58
2022-12-19T01:17:39.133Z,41.42
2022-12-19T01:20:29.457Z,42.55
2022-12-19T01:23:00.177Z,37.78
2022-12-19T01:25:29.443Z,39.78
2022-12-19T01:27:58.626Z,43.75
2022-12-19T01:30:29.068Z,46.90
2022-12-19T01:33:00.968Z,48.10
2022-12-19T01:35:30.937Z,45.63
2022-12-19T01:38:07.935Z,43.63
2022-12-19T01:40:37.804Z,43.10
2022-12-19T01:43:07.205Z,47.78
2022-12-19T01:45:42.121Z,50.17
2022-12-19T01:48:20.314Z,50.13
2022-12-19T01:51:01.222Z,54.90
2022-12-19T01:53:48.387Z,38.95
2022-12-19T01:56:23.762Z,47.53
2022-12-19T01:59:06.014Z,45.15
2022-12-19T02:01:51.510Z,49.72
2022-12-19T02:04:31.907Z,49.08
2022-12-19T02:07:15.081Z,47.63
2022-12-19T02:09:47.436Z,43.20
2022-12-19T02:12:28.201Z,41.10
2022-12-19T02:15:03.173Z,55.22
2022-12-19T02:17:48.265Z,48.58
2022-12-19T02:21:15.908Z,43.30
2022-12-19T02:24:42.963Z,48.70
2022-12-19T02:27:59.204Z,45.47
2022-12-19T02:30:53.075Z,46.85
2022-12-19T02:33:34.133Z,49.22
2022-12-19T02:36:13.348Z,47.50
2022-12-19T02:38:51.653Z,40.35
2022-12-19T02:41:28.229Z,53.85
2022-12-19T02:44:02.747Z,51.03
2022-12-19T02:46:34.558Z,55.85
2022-12-19T02:49:03.872Z,43.95
2022-12-19T02:51:32.567Z,43.72
2022-12-19T02:54:01.402Z,49.05
2022-12-19T02:56:46.783Z,41.10
2022-12-19T02:59:47.228Z,46.92
2022-12-19T03:02:37.264Z,42.17
2022-12-19T03:05:16.014Z,49.22
2022-12-19T03:07:56.994Z,54.42
2022-12-19T03:10:35.746Z,52.80
2022-12-19T03:13:13.887Z,51.22
2022-12-19T03:15:43.970Z,57.13
2022-12-19T03:18:14.870Z,42.00
2022-12-19T03:20:50.841Z,48.55
2022-12-19T03:23:20.557Z,51.47
2022-12-19T03:25:56.164Z,44.75
2022-12-19T03:28:31.331Z,45.28
2022-12-19T03:31:01.883Z,55.83
2022-12-19T03:33:35.039Z,41.50
2022-12-19T03:36:10.382Z,48.35
2022-12-19T03:38:46.577Z,49.95
2022-12-19T03:41:40.149Z,50.70
2022-12-19T03:44:11.520Z,48.40
2022-12-19T03:46:46.077Z,48.80
2022-12-19T03:49:16.668Z,46.45
2022-12-19T03:51:59.394Z,55.50
2022-12-19T03:54:33.405Z,49.15
2022-12-19T03:57:10.431Z,47.33
2022-12-19T03:59:46.257Z,44.35
2022-12-19T04:02:21.216Z,49.50
2022-12-19T04:04:57.381Z,51.45
2022-12-19T04:07:26.593Z,46.22
2022-12-19T04:09:59.186Z,54.75
2022-12-19T04:12:37.722Z,58.67
2022-12-19T04:15:08.755Z,54.38
2022-12-19T04:17:47.764Z,47.75
2022-12-19T04:20:19.837Z,53.58
2022-12-19T04:22:57.803Z,44.25
2022-12-19T04:25:32.216Z,49.50
2022-12-19T04:28:14.259Z,41.78
2022-12-19T04:30:45.123Z,49.85
2022-12-19T04:33:13.813Z,57.90
2022-12-19T04:35:43.951Z,50.30
2022-12-19T04:38:15.055Z,47.83
2022-12-19T04:40:43.623Z,45.08
2022-12-19T04:43:12.251Z,44.78
2022-12-19T04:45:43.106Z,51.45
2022-12-19T04:48:11.925Z,48.70
2022-12-19T04:50:40.548Z,44.92
2022-12-19T04:53:10.700Z,41.55
2022-12-19T04:55:41.300Z,48.40
2022-12-19T04:58:09.957Z,49.63
2022-12-19T05:00:38.551Z,55.67
2022-12-19T05:03:07.277Z,47.95
2022-12-19T05:05:35.878Z,43.53
2022-12-19T05:08:04.489Z,47.28
2022-12-19T05:10:34.567Z,54.30
2022-12-19T05:13:03.140Z,45.22
2022-12-19T05:15:31.701Z,45.63
2022-12-19T05:18:00.320Z,56.72
2022-12-19T05:20:28.934Z,41.83
2022-12-19T05:22:57.528Z,49.95
2022-12-19T05:25:26.167Z,47.45
2022-12-19T05:27:56.136Z,48.60
2022-12-19T05:30:24.908Z,43.90
2022-12-19T05:32:53.596Z,50.60
2022-12-19T05:35:22.261Z,53.88
2022-12-19T05:37:50.967Z,44.33
2022-12-19T05:40:19.810Z,51.75
2022-12-19T05:42:48.421Z,44.35
2022-12-19T05:45:18.945Z,45.83
2022-12-19T05:47:47.870Z,45.28
2022-12-19T05:50:18.226Z,42.50
2022-12-19T05:52:53.135Z,45.45
2022-12-19T05:55:21.750Z,53.90
2022-12-19T05:57:50.371Z,45.60
2022-12-19T06:00:21.328Z,38.70
2022-12-19T06:02:50.197Z,40.85
2022-12-19T06:05:18.937Z,43.10
2022-12-19T06:07:48.685Z,39.45
2022-12-19T06:10:17.375Z,39.00
2022-12-19T06:12:45.932Z,58.42
2022-12-19T06:15:14.588Z,47.00
2022-12-19T06:17:44.525Z,38.92
2022-12-19T06:20:13.399Z,48.40
2022-12-19T06:22:42.124Z,43.13
2022-12-19T06:25:13.674Z,45.75
2022-12-19T06:27:42.333Z,41.38
2022-12-19T06:30:12.407Z,45.17
2022-12-19T06:32:41.163Z,44.08
2022-12-19T06:35:11.569Z,41.42
2022-12-19T06:37:40.173Z,48.25
2022-12-19T06:40:31.905Z,50.10
2022-12-19T06:42:59.400Z,36.33
2022-12-19T06:45:27.979Z,46.70
2022-12-19T06:47:59.011Z,43.33
2022-12-19T06:50:29.776Z,46.35
2022-12-19T06:52:59.283Z,37.05
2022-12-19T06:55:28.434Z,43.88
2022-12-19T06:57:57.340Z,44.38
2022-12-19T07:00:26.232Z,52.35
2022-12-19T07:02:56.810Z,44.28
2022-12-19T07:05:25.775Z,45.38
2022-12-19T07:07:55.618Z,48.85
2022-12-19T07:10:24.584Z,40.83
2022-12-19T07:12:53.190Z,39.40
2022-12-19T07:15:21.748Z,44.35
2022-12-19T07:17:50.518Z,47.58
2022-12-19T07:20:20.737Z,47.10
2022-12-19T07:22:50.582Z,38.58
2022-12-19T07:25:20.973Z,49.00
2022-12-19T07:27:49.934Z,43.67
2022-12-19T07:30:19.061Z,43.88
2022-12-19T07:32:47.649Z,47.08
2022-12-19T07:35:16.571Z,46.30
2022-12-19T07:37:45.389Z,40.10
2022-12-19T07:40:15.526Z,52.70
2022-12-19T07:42:45.871Z,41.63
2022-12-19T07:45:14.557Z,45.92
2022-12-19T07:47:43.212Z,51.13
2022-12-19T07:50:12.531Z,42.75
2022-12-19T07:52:43.725Z,46.53
2022-12-19T07:55:12.672Z,42.67
2022-12-19T07:57:41.333Z,41.63
2022-12-19T08:00:13.483Z,43.58
2022-12-19T08:02:42.490Z,50.70
2022-12-19T08:05:12.109Z,49.50
2022-12-19T08:07:40.805Z,62.03
2022-12-19T08:10:12.473Z,42.90
2022-12-19T08:12:41.476Z,42.30
2022-12-19T08:15:12.347Z,46.22
2022-12-19T08:17:41.010Z,37.78
2022-12-19T08:20:12.431Z,46.78
2022-12-19T08:22:41.242Z,50.85
2022-12-19T08:25:10.985Z,41.67
2022-12-19T08:27:39.997Z,36.22
2022-12-19T08:30:13.990Z,52.13
2022-12-19T08:32:42.921Z,48.28
2022-12-19T08:35:11.939Z,49.67
2022-12-19T08:37:40.514Z,46.20
2022-12-19T08:40:10.941Z,39.10
2022-12-19T08:42:39.656Z,43.42
2022-12-19T08:45:09.889Z,47.13
2022-12-19T08:47:39.792Z,36.50
2022-12-19T08:50:09.607Z,43.38
2022-12-19T08:52:38.587Z,38.00
2022-12-19T08:55:10.102Z,40.30
2022-12-19T08:57:38.957Z,42.33
2022-12-19T09:00:09.577Z,49.33
2022-12-19T09:02:40.439Z,42.67
2022-12-19T09:06:00.974Z,39.22
2022-12-19T09:07:58.828Z,45.13
2022-12-19T09:10:27.428Z,40.22
2022-12-19T09:12:58.024Z,40.35
2022-12-19T09:15:26.848Z,52.72
2022-12-19T09:17:57.114Z,39.45
2022-12-19T09:20:25.859Z,44.58
2022-12-19T09:22:55.093Z,39.17
2022-12-19T09:25:23.881Z,42.15
2022-12-19T09:28:26.368Z,39.35
2022-12-19T09:30:41.535Z,44.08
2022-12-19T09:33:12.081Z,37.28
2022-12-19T09:35:40.663Z,38.83
2022-12-19T09:38:09.351Z,34.42
2022-12-19T09:41:04.127Z,36.78
2022-12-19T09:43:51.923Z,42.30
2022-12-19T09:46:26.168Z,37.75
2022-12-19T09:48:58.544Z,43.40
2022-12-19T09:51:36.645Z,37.60
2022-12-19T09:54:15.674Z,44.80
2022-12-19T09:56:46.911Z,35.85
2022-12-19T09:59:39.833Z,36.88
2022-12-19T10:02:33.308Z,41.97
2022-12-19T10:05:37.492Z,41.50
2022-12-19T10:08:18.668Z,41.95
2022-12-19T10:12:47.458Z,37.00
2022-12-19T10:14:22.323Z,37.30
2022-12-19T10:17:24.261Z,39.45
2022-12-19T10:20:17.177Z,40.33
2022-12-19T10:23:02.491Z,37.47
2022-12-19T10:25:48.513Z,37.50
2022-12-19T10:28:37.597Z,40.28
2022-12-19T10:31:22.391Z,40.95
2022-12-19T10:34:03.627Z,39.70
2022-12-19T10:37:12.867Z,32.17
2022-12-19T10:39:38.501Z,40.80
2022-12-19T10:42:18.400Z,41.60
2022-12-19T10:44:50.218Z,37.15
2022-12-19T10:47:19.364Z,42.87
2022-12-19T10:49:49.303Z,52.97
2022-12-19T10:52:49.067Z,37.23
2022-12-19T10:55:39.282Z,38.43
2022-12-19T10:58:23.689Z,40.93
2022-12-19T11:01:11.564Z,39.60
2022-12-19T11:03:42.976Z,34.30
2022-12-19T11:06:51.092Z,39.43
2022-12-19T11:09:27.651Z,40.77
2022-12-19T11:16:35.983Z,41.60
2022-12-19T11:19:36.355Z,37.87
2022-12-19T11:24:46.221Z,36.73
2022-12-19T11:29:34.344Z,36.53
2022-12-19T11:29:35.024Z,38.40
2022-12-19T11:30:44.126Z,41.63
2022-12-19T11:32:43.513Z,32.90
2022-12-19T11:35:24.210Z,32.20
2022-12-19T11:37:58.308Z,37.13
2022-12-19T11:40:40.431Z,33.87
2022-12-19T11:46:35.830Z,32.47
2022-12-19T11:49:17.084Z,35.90
2022-12-19T11:51:56.084Z,40.20
2022-12-19T11:54:33.207Z,33.90
2022-12-19T11:57:02.837Z,39.67
2022-12-19T11:59:36.523Z,35.10
2022-12-19T12:02:52.273Z,38.93
2022-12-19T12:05:47.019Z,40.30
2022-12-19T12:11:15.576Z,35.27
2022-12-19T12:19:19.223Z,38.97
2022-12-19T12:28:52.462Z,37.10
2022-12-19T12:31:07.544Z,40.90
2022-12-19T12:31:17.155Z,36.87
2022-12-19T12:31:41.880Z,34.40
2022-12-19T12:31:53.298Z,33.70
2022-12-19T12:35:08.268Z,40.00
2022-12-19T12:35:40.777Z,34.33
2022-12-19T12:40:05.962Z,36.90
2022-12-19T12:42:51.630Z,38.70
2022-12-19T12:45:25.163Z,41.60
2022-12-19T12:47:55.630Z,36.90
2022-12-19T12:50:27.547Z,32.47
2022-12-19T12:53:02.726Z,37.17
2022-12-19T12:55:35.574Z,27.93
2022-12-19T12:58:06.130Z,33.13
2022-12-19T13:00:38.188Z,38.03
2022-12-19T13:03:16.896Z,35.80
2022-12-19T13:06:04.452Z,33.23
2022-12-19T13:08:38.763Z,40.43
2022-12-19T13:11:34.046Z,32.23
2022-12-19T13:14:02.615Z,32.40
2022-12-19T13:16:53.458Z,37.00
2022-12-19T13:19:28.771Z,34.60
2022-12-19T13:22:19.528Z,31.40
2022-12-19T13:24:51.621Z,35.43
2022-12-19T13:27:49.311Z,33.10
2022-12-19T13:30:20.521Z,29.97
2022-12-19T13:33:13.048Z,34.00
2022-12-19T13:36:43.122Z,35.43
2022-12-19T13:39:50.026Z,35.10
2022-12-19T13:41:47.892Z,32.37
2022-12-19T13:44:22.423Z,37.40
2022-12-19T13:46:51.598Z,35.53
2022-12-19T13:49:35.471Z,34.00
2022-12-19T13:52:06.415Z,35.03
2022-12-19T13:54:47.634Z,33.77
2022-12-19T13:57:24.839Z,47.20
2022-12-19T14:00:00.412Z,34.67
2022-12-19T14:02:43.774Z,39.03
2022-12-19T14:06:14.705Z,35.37
2022-12-19T14:08:22.715Z,35.73
2022-12-19T14:11:40.707Z,31.20
2022-12-19T14:14:16.460Z,31.60
2022-12-19T14:16:49.521Z,32.30
2022-12-19T14:19:22.766Z,34.70
2022-12-19T14:22:03.798Z,32.73
2022-12-19T14:24:42.730Z,38.10
2022-12-19T14:28:19.923Z,41.70
2022-12-19T14:30:30.485Z,34.27
2022-12-19T14:33:46.641Z,31.50
2022-12-19T14:36:10.526Z,34.63
2022-12-19T14:39:26.451Z,30.70
2022-12-19T14:42:02.670Z,32.13
2022-12-19T14:54:01.799Z,30.02
2022-12-19T14:54:05.399Z,32.70
2022-12-19T14:54:21.239Z,32.38
2022-12-19T14:54:28.915Z,35.63
2022-12-19T14:59:18.514Z,29.63
2022-12-19T15:01:54.539Z,32.03
2022-12-19T15:04:51.448Z,30.93
2022-12-19T15:07:22.993Z,30.42
2022-12-19T15:11:03.852Z,31.40
2022-12-19T15:14:51.840Z,30.25
2022-12-19T15:16:08.008Z,33.50
2022-12-19T15:18:42.688Z,42.65
2022-12-19T15:21:14.840Z,33.50
2022-12-19T15:23:45.783Z,36.20
2022-12-19T15:26:19.957Z,38.38
2022-12-19T15:28:51.715Z,29.90
2022-12-19T15:31:33.001Z,40.45
2022-12-19T15:36:53.604Z,39.55
2022-12-19T15:39:23.682Z,39.97
2022-12-19T15:41:56.029Z,36.28
2022-12-19T15:44:32.576Z,31.30
2022-12-19T15:47:05.806Z,41.55
2022-12-19T15:49:35.343Z,37.25
2022-12-19T15:52:04.270Z,34.08
2022-12-19T15:54:50.214Z,32.50
2022-12-19T15:57:30.261Z,35.28
2022-12-19T16:00:03.128Z,41.72
2022-12-19T16:03:13.373Z,33.72
2022-12-19T16:05:26.088Z,33.53
2022-12-19T16:07:54.891Z,38.67
2022-12-19T16:10:24.405Z,37.00
2022-12-19T16:12:58.164Z,38.10
2022-12-19T16:15:30.497Z,40.28
2022-12-19T16:18:04.053Z,36.13
2022-12-19T16:20:36.176Z,35.65
2022-12-19T16:23:05.245Z,39.35
2022-12-19T16:25:39.904Z,35.28
2022-12-19T16:28:25.469Z,36.30
2022-12-19T16:30:59.290Z,35.20
2022-12-19T16:33:32.039Z,32.13
2022-12-19T16:36:05.768Z,33.03
2022-12-19T16:38:35.287Z,35.50
2022-12-19T16:41:04.261Z,31.48
2022-12-19T16:43:38.509Z,35.20
2022-12-19T16:46:09.072Z,31.00
2022-12-19T16:48:39.274Z,39.45
2022-12-19T16:51:20.526Z,32.03
2022-12-19T16:53:50.674Z,36.90
2022-12-19T16:56:29.305Z,32.20
2022-12-19T16:59:01.221Z,39.00
2022-12-19T17:01:30.541Z,40.87
2022-12-19T17:04:00.741Z,32.95
2022-12-19T17:06:29.392Z,35.00
2022-12-19T17:08:58.084Z,45.63
2022-12-19T17:11:28.683Z,34.58
2022-12-19T17:14:04.399Z,34.87
2022-12-19T17:16:33.273Z,42.80
2022-12-19T17:19:03.841Z,28.35
2022-12-19T17:21:32.440Z,32.40
2022-12-19T17:24:01.039Z,35.70
2022-12-19T17:26:29.881Z,33.83
2022-12-19T17:28:58.719Z,32.90
2022-12-19T17:31:38.086Z,36.50
2022-12-19T17:34:17.291Z,37.05
2022-12-19T17:36:46.831Z,33.25
2022-12-19T17:39:21.653Z,32.30
2022-12-19T17:41:52.010Z,35.80
2022-12-19T17:44:20.895Z,39.88
2022-12-19T17:46:50.451Z,35.40
2022-12-19T17:49:29.305Z,31.20
2022-12-19T17:52:01.325Z,37.33
2022-12-19T17:54:30.720Z,31.67
2022-12-19T17:56:59.845Z,33.28
2022-12-19T17:59:28.710Z,39.03
2022-12-19T18:01:57.777Z,37.05
2022-12-19T18:04:29.929Z,41.40
2022-12-19T18:06:58.649Z,41.05
2022-12-19T18:09:28.437Z,40.03
2022-12-19T18:11:57.101Z,39.35
2022-12-19T18:14:25.914Z,40.88
2022-12-19T18:16:54.779Z,42.83
2022-12-19T18:19:30.563Z,39.58
2022-12-19T18:21:59.349Z,42.67
2022-12-19T18:24:28.187Z,34.92
2022-12-19T18:26:56.990Z,35.13
2022-12-19T18:29:26.099Z,35.28
2022-12-19T18:31:56.626Z,33.65
2022-12-19T18:34:31.532Z,36.53
2022-12-19T18:37:00.824Z,37.50
2022-12-19T18:39:31.972Z,37.25
2022-12-19T18:42:00.979Z,41.15
2022-12-19T18:44:29.679Z,51.63
2022-12-19T18:46:58.930Z,35.47
2022-12-19T18:49:30.069Z,44.15
2022-12-19T18:52:01.063Z,36.15
2022-12-19T18:54:30.350Z,37.30
2022-12-19T18:57:00.124Z,41.08
2022-12-19T18:59:29.040Z,39.85
2022-12-19T19:01:58.056Z,37.38
2022-12-19T19:04:27.076Z,39.60
2022-12-19T19:06:57.266Z,36.50
2022-12-19T19:09:26.224Z,33.50
2022-12-19T19:11:57.972Z,36.65
2022-12-19T19:14:26.970Z,35.70
2022-12-19T19:16:55.824Z,47.70
2022-12-19T19:19:25.027Z,39.25
2022-12-19T19:21:53.800Z,36.70
2022-12-19T19:24:24.639Z,48.17
2022-12-19T19:26:53.535Z,36.30
2022-12-19T19:29:22.250Z,40.38
2022-12-19T19:31:53.431Z,35.28
2022-12-19T19:34:27.191Z,38.38
2022-12-19T19:37:00.606Z,38.17
2022-12-19T19:39:35.118Z,33.28
2022-12-19T19:42:04.084Z,31.92
2022-12-19T19:44:32.954Z,36.80
2022-12-19T19:47:02.043Z,37.67
2022-12-19T19:49:30.911Z,36.90
2022-12-19T19:52:02.880Z,33.35
2022-12-19T19:54:35.414Z,30.63
2022-12-19T19:57:04.258Z,29.30
2022-12-19T19:59:33.163Z,31.98
2022-12-19T20:02:02.429Z,33.05
2022-12-19T20:04:31.446Z,33.92
2022-12-19T20:07:00.359Z,37.85
2022-12-19T20:09:29.519Z,40.92
2022-12-19T20:11:59.777Z,35.60
2022-12-19T20:14:28.770Z,41.88
2022-12-19T20:16:57.618Z,32.63
2022-12-19T20:19:26.681Z,35.83
2022-12-19T20:21:55.578Z,32.17
2022-12-19T20:24:24.846Z,38.72
2022-12-19T20:26:54.733Z,40.67
2022-12-19T20:29:25.288Z,41.25
2022-12-19T20:31:54.077Z,36.67
2022-12-19T20:34:22.954Z,36.55
2022-12-19T20:36:51.701Z,36.72
2022-12-19T20:39:22.247Z,35.22
2022-12-19T20:41:51.832Z,32.50
2022-12-19T20:44:24.664Z,41.58
2022-12-19T20:46:55.399Z,44.77
2022-12-19T20:49:25.450Z,38.03
2022-12-19T20:51:54.301Z,35.78
2022-12-19T20:54:23.651Z,38.50
2022-12-19T20:56:52.369Z,35.60
2022-12-19T20:59:21.374Z,38.20
2022-12-19T21:01:50.339Z,39.38
2022-12-19T21:04:20.662Z,38.42
2022-12-19T21:06:52.395Z,36.63
2022-12-19T21:09:21.140Z,37.25
2022-12-19T21:11:50.022Z,40.58
2022-12-19T21:14:18.721Z,32.58
2022-12-19T21:16:47.793Z,32.20
2022-12-19T21:19:16.912Z,30.65
2022-12-19T21:21:47.320Z,34.40
2022-12-19T21:24:16.092Z,37.17
2022-12-19T21:26:45.182Z,37.72
2022-12-19T21:29:13.886Z,32.35
2022-12-19T21:31:42.771Z,36.35
2022-12-19T21:34:12.423Z,43.92
2022-12-19T21:36:41.492Z,37.53
2022-12-19T21:39:12.841Z,41.42
2022-12-19T21:41:41.556Z,38.83
2022-12-19T21:44:11.755Z,36.67
2022-12-19T21:46:40.439Z,38.30
2022-12-19T21:49:10.488Z,34.75
2022-12-19T21:51:39.141Z,39.25
2022-12-19T21:54:10.830Z,39.78
2022-12-19T21:56:41.677Z,44.33
2022-12-19T21:59:14.952Z,40.80
2022-12-19T22:01:44.887Z,37.60
2022-12-19T22:04:20.891Z,31.88
2022-12-19T22:06:51.791Z,29.30
2022-12-19T22:09:23.463Z,36.95
2022-12-19T22:11:53.699Z,36.28
2022-12-19T22:14:22.675Z,39.40
2022-12-19T22:16:51.732Z,38.30
2022-12-19T22:19:21.143Z,36.13
2022-12-19T22:21:49.923Z,40.97
2022-12-19T22:24:20.060Z,38.08
2022-12-19T22:26:48.720Z,37.85
2022-12-19T22:29:19.312Z,43.22
2022-12-19T22:31:49.574Z,33.70
2022-12-19T22:34:22.598Z,33.45
2022-12-19T22:36:51.198Z,39.40
2022-12-19T22:39:22.500Z,35.40
2022-12-19T22:41:51.570Z,40.28
2022-12-19T22:44:24.821Z,35.53
2022-12-19T22:46:53.955Z,37.05
2022-12-19T22:49:22.697Z,40.15
2022-12-19T22:51:51.586Z,42.58
2022-12-19T22:54:20.278Z,37.80
2022-12-19T22:56:52.004Z,44.05
2022-12-19T22:59:22.117Z,31.02
2022-12-19T23:01:50.880Z,42.90
2022-12-19T23:04:19.750Z,42.85
2022-12-19T23:06:48.469Z,40.05
2022-12-19T23:09:19.412Z,43.10
2022-12-19T23:11:50.784Z,44.03
2022-12-19T23:14:22.632Z,42.53
2022-12-19T23:16:51.300Z,39.83
2022-12-19T23:19:20.227Z,43.58
2022-12-19T23:21:49.213Z,40.33
2022-12-19T23:24:17.874Z,37.85
2022-12-19T23:26:46.807Z,42.40
2022-12-19T23:29:16.728Z,41.42
2022-12-19T23:31:47.988Z,46.33
2022-12-19T23:34:18.211Z,37.83
2022-12-19T23:39:36.607Z,43.05
2022-12-19T23:42:05.629Z,41.53
2022-12-19T23:44:34.506Z,41.88
2022-12-19T23:47:04.537Z,42.63
2022-12-19T23:49:34.613Z,35.55
2022-12-19T23:52:03.480Z,38.08
2022-12-19T23:54:32.517Z,41.50
2022-12-19T23:57:01.168Z,37.65
2022-12-19T23:59:29.694Z,36.75
